createdAt,value
2018-04-16T00:00:32.782Z,40.13
2018-04-16T00:02:59.230Z,40.45
2018-04-16T00:05:25.633Z,41.18
2018-04-16T00:07:51.980Z,40.37
2018-04-16T00:10:18.381Z,40.56
2018-04-16T00:12:44.793Z,40.82
2018-04-16T00:15:11.125Z,41.18
2018-04-16T00:17:37.533Z,41.41
2018-04-16T00:20:04.009Z,41.48
2018-04-16T00:22:30.422Z,41.46
2018-04-16T00:24:56.805Z,41.52
2018-04-16T00:27:23.161Z,41.57
2018-04-16T00:29:49.554Z,41.69
2018-04-16T00:32:21.777Z,43.18
2018-04-16T00:34:54.026Z,43.14
2018-04-16T00:37:26.499Z,42.82
2018-04-16T00:39:58.838Z,42.53
2018-04-16T00:42:31.330Z,42.54
2018-04-16T00:45:03.917Z,42.46
2018-04-16T00:47:36.323Z,42.64
2018-04-16T01:03:37.280Z,43.60
2018-04-16T01:06:09.810Z,43.87
2018-04-16T01:08:42.250Z,44.67
2018-04-16T01:11:14.631Z,45.79
2018-04-16T01:13:47.129Z,46.62
2018-04-16T01:16:19.590Z,46.95
2018-04-16T01:32:18.571Z,52.04
2018-04-16T01:34:50.878Z,53.37
2018-04-16T01:37:23.235Z,53.41
2018-04-16T01:39:55.574Z,54.31
2018-04-16T01:42:27.806Z,55.46
2018-04-16T01:45:00.249Z,56.20
2018-04-16T01:47:32.690Z,56.61
2018-04-16T01:50:05.054Z,56.11
2018-04-16T01:52:37.458Z,56.16
2018-04-16T01:55:09.909Z,55.98
2018-04-16T01:57:42.385Z,56.53
2018-04-16T02:00:14.617Z,56.44
2018-04-16T02:02:47.138Z,57.46
2018-04-16T02:05:19.637Z,58.25
2018-04-16T02:07:51.943Z,57.54
2018-04-16T02:10:24.138Z,57.64
2018-04-16T02:12:56.654Z,58.04
2018-04-16T02:15:28.926Z,57.50
2018-04-16T02:18:01.226Z,57.86
2018-04-16T02:20:33.774Z,58.13
2018-04-16T02:23:06.206Z,57.79
2018-04-16T02:25:38.607Z,57.39
2018-04-16T02:28:10.958Z,57.90
2018-04-16T02:30:43.290Z,58.51
2018-04-16T02:33:15.718Z,58.31
2018-04-16T02:35:48.077Z,59.46
2018-04-16T02:38:21.053Z,58.32
2018-04-16T02:40:53.457Z,58.61
2018-04-16T02:43:25.909Z,58.42
2018-04-16T02:45:58.357Z,59.32
2018-04-16T02:48:30.598Z,57.94
2018-04-16T02:51:02.931Z,59.15
2018-04-16T02:53:35.361Z,58.30
2018-04-16T02:56:07.774Z,58.44
2018-04-16T02:58:40.258Z,58.40
2018-04-16T03:01:12.600Z,60.80
2018-04-16T03:03:45.081Z,61.38
2018-04-16T03:06:17.456Z,62.91
2018-04-16T03:08:49.992Z,61.73
2018-04-16T03:11:22.553Z,59.52
2018-04-16T03:13:54.884Z,60.47
2018-04-16T03:16:27.287Z,59.80
2018-04-16T03:18:59.636Z,60.15
2018-04-16T03:21:32.171Z,59.59
2018-04-16T03:24:04.709Z,59.35
2018-04-16T03:26:37.097Z,59.90
2018-04-16T03:29:09.410Z,60.87
2018-04-16T03:31:41.963Z,59.54
2018-04-16T03:34:14.421Z,58.95
2018-04-16T03:36:46.883Z,58.06
2018-04-16T03:39:19.326Z,56.08
2018-04-16T03:41:51.530Z,56.26
2018-04-16T03:44:23.986Z,56.50
2018-04-16T03:46:56.450Z,56.48
2018-04-16T03:49:28.958Z,56.32
2018-04-16T04:05:17.850Z,55.42
2018-04-16T04:07:44.185Z,55.50
2018-04-16T04:10:10.566Z,55.51
2018-04-16T04:12:36.910Z,56.23
2018-04-16T04:15:03.265Z,56.10
2018-04-16T04:17:29.682Z,55.57
2018-04-16T04:19:56.018Z,56.54
2018-04-16T04:22:34.501Z,56.18
2018-04-16T04:25:13.171Z,55.59
2018-04-16T04:27:51.557Z,56.32
2018-04-16T04:30:28.194Z,57.66
2018-04-16T04:32:54.819Z,57.88
2018-04-16T04:35:21.253Z,58.18
2018-04-16T04:37:47.750Z,58.19
2018-04-16T04:40:14.087Z,57.66
2018-04-16T04:42:40.470Z,57.38
2018-04-16T04:45:06.813Z,57.50
2018-04-16T04:47:33.394Z,57.98
2018-04-16T04:49:59.781Z,58.09
2018-04-16T04:52:26.133Z,58.05
2018-04-16T04:54:52.462Z,59.44
2018-04-16T04:57:18.948Z,58.04
2018-04-16T04:59:45.277Z,61.58
2018-04-16T05:02:11.618Z,59.07
2018-04-16T05:04:37.954Z,59.08
2018-04-16T05:07:04.329Z,60.04
2018-04-16T05:09:30.693Z,60.55
2018-04-16T05:11:57.019Z,60.46
2018-04-16T05:14:23.366Z,59.71
2018-04-16T05:16:50.030Z,62.72
2018-04-16T05:19:16.567Z,59.54
2018-04-16T05:21:42.905Z,59.78
2018-04-16T05:24:09.322Z,59.73
2018-04-16T05:26:35.733Z,60.14
2018-04-16T05:29:02.177Z,59.02
2018-04-16T05:31:28.515Z,59.93
2018-04-16T05:33:54.919Z,59.54
2018-04-16T05:36:21.369Z,58.39
2018-04-16T05:38:47.781Z,57.96
2018-04-16T05:41:14.266Z,59.54
2018-04-16T05:43:40.645Z,59.00
2018-04-16T05:46:07.113Z,59.88
2018-04-16T05:48:33.487Z,57.34
2018-04-16T05:51:00.022Z,57.82
2018-04-16T05:53:26.414Z,64.82
2018-04-16T05:55:52.765Z,62.81
2018-04-16T05:58:19.501Z,60.21
2018-04-16T06:00:45.989Z,61.09
2018-04-16T06:03:12.342Z,55.89
2018-04-16T06:05:38.706Z,55.72
2018-04-16T06:08:05.074Z,63.00
2018-04-16T06:10:31.439Z,61.68
2018-04-16T06:12:57.794Z,55.59
2018-04-16T06:15:24.125Z,54.23
2018-04-16T06:17:50.478Z,54.20
2018-04-16T06:20:16.860Z,54.63
2018-04-16T06:22:43.205Z,55.48
2018-04-16T06:25:09.617Z,53.67
2018-04-16T06:27:35.979Z,57.51
2018-04-16T06:30:02.366Z,52.96
2018-04-16T06:32:28.709Z,50.38
2018-04-16T06:34:55.439Z,51.87
2018-04-16T06:37:22.308Z,56.44
2018-04-16T06:39:48.878Z,49.74
2018-04-16T06:42:15.302Z,49.52
2018-04-16T06:44:41.721Z,50.74
2018-04-16T06:47:08.067Z,50.21
2018-04-16T06:49:34.550Z,49.78
2018-04-16T06:52:01.085Z,54.12
2018-04-16T06:54:27.416Z,52.16
2018-04-16T06:56:53.730Z,50.09
2018-04-16T06:59:20.106Z,51.38
2018-04-16T07:01:46.522Z,51.21
2018-04-16T07:04:12.974Z,49.80
2018-04-16T07:06:39.342Z,51.88
2018-04-16T07:09:05.754Z,59.43
2018-04-16T07:11:32.140Z,50.78
2018-04-16T07:13:58.482Z,52.47
2018-04-16T07:16:24.888Z,56.22
2018-04-16T07:18:51.325Z,56.57
2018-04-16T07:21:17.672Z,55.81
2018-04-16T07:23:44.009Z,54.84
2018-04-16T07:26:10.343Z,54.68
2018-04-16T07:28:36.718Z,50.36
2018-04-16T07:31:03.487Z,48.22
2018-04-16T07:33:29.846Z,56.43
2018-04-16T07:35:56.252Z,52.79
2018-04-16T07:38:22.600Z,53.20
2018-04-16T07:40:48.946Z,49.27
2018-04-16T07:43:15.305Z,53.48
2018-04-16T07:45:41.698Z,49.55
2018-04-16T07:48:08.194Z,58.38
2018-04-16T07:50:34.540Z,52.28
2018-04-16T07:53:00.894Z,49.45
2018-04-16T07:55:27.255Z,46.12
2018-04-16T07:57:53.609Z,48.92
2018-04-16T08:00:20.012Z,50.50
2018-04-16T08:02:46.367Z,48.61
2018-04-16T08:05:12.785Z,46.76
2018-04-16T08:07:39.131Z,48.34
2018-04-16T08:10:05.556Z,49.37
2018-04-16T08:12:31.960Z,49.79
2018-04-16T08:14:58.318Z,54.06
2018-04-16T08:17:24.676Z,46.45
2018-04-16T08:19:51.049Z,46.12
2018-04-16T08:22:17.485Z,51.16
2018-04-16T08:24:43.998Z,49.88
2018-04-16T08:27:10.337Z,46.07
2018-04-16T08:29:36.809Z,44.78
2018-04-16T08:32:03.227Z,45.64
2018-04-16T08:34:29.602Z,46.53
2018-04-16T08:36:55.943Z,46.26
2018-04-16T08:39:22.270Z,53.16
2018-04-16T08:41:48.668Z,45.45
2018-04-16T08:44:14.989Z,46.81
2018-04-16T08:46:41.387Z,46.26
2018-04-16T08:49:07.753Z,49.13
2018-04-16T08:51:34.096Z,49.60
2018-04-16T08:54:00.750Z,45.77
2018-04-16T08:56:27.093Z,45.38
2018-04-16T08:58:53.421Z,45.43
2018-04-16T09:01:19.758Z,45.80
2018-04-16T09:03:46.162Z,45.36
2018-04-16T09:06:12.517Z,46.22
2018-04-16T09:08:38.872Z,48.32
2018-04-16T09:11:05.257Z,49.09
2018-04-16T09:13:31.622Z,45.31
2018-04-16T09:15:57.950Z,47.91
2018-04-16T09:18:24.490Z,46.48
2018-04-16T09:20:50.895Z,44.70
2018-04-16T09:23:17.308Z,45.42
2018-04-16T09:25:43.830Z,45.70
2018-04-16T09:28:10.185Z,45.71
2018-04-16T09:30:36.554Z,45.76
2018-04-16T09:33:02.930Z,49.42
2018-04-16T09:35:29.302Z,51.59
2018-04-16T09:37:55.633Z,44.89
2018-04-16T09:40:22.167Z,44.80
2018-04-16T09:42:48.557Z,52.66
2018-04-16T09:45:15.221Z,45.76
2018-04-16T09:47:41.618Z,46.49
2018-04-16T09:50:07.992Z,45.12
2018-04-16T09:52:34.342Z,51.99
2018-04-16T09:55:00.677Z,52.70
2018-04-16T09:57:27.026Z,51.87
2018-04-16T09:59:53.377Z,44.45
2018-04-16T10:02:24.639Z,46.70
2018-04-16T10:04:51.142Z,43.32
2018-04-16T10:07:17.505Z,49.32
2018-04-16T10:09:43.856Z,49.10
2018-04-16T10:12:10.194Z,51.97
2018-04-16T10:14:36.520Z,48.54
2018-04-16T10:17:02.866Z,43.96
2018-04-16T10:19:29.189Z,45.51
2018-04-16T10:21:55.665Z,50.67
2018-04-16T10:24:22.302Z,44.50
2018-04-16T10:26:49.043Z,48.97
2018-04-16T10:29:15.433Z,43.73
2018-04-16T10:31:41.990Z,51.96
2018-04-16T10:34:08.398Z,48.78
2018-04-16T10:36:35.002Z,49.41
2018-04-16T10:39:01.317Z,48.88
2018-04-16T10:41:27.686Z,46.13
2018-04-16T10:43:54.032Z,46.57
2018-04-16T10:46:20.447Z,46.04
2018-04-16T10:48:46.959Z,46.21
2018-04-16T10:51:13.302Z,44.77
2018-04-16T10:53:39.658Z,49.88
2018-04-16T10:56:06.118Z,46.51
2018-04-16T10:58:32.493Z,43.95
2018-04-16T11:00:58.960Z,50.09
2018-04-16T11:03:25.314Z,50.84
2018-04-16T11:05:51.877Z,45.00
2018-04-16T11:08:18.220Z,45.52
2018-04-16T11:10:44.607Z,47.84
2018-04-16T11:13:10.954Z,43.54
2018-04-16T11:15:37.331Z,48.94
2018-04-16T11:18:03.685Z,45.83
2018-04-16T11:20:30.051Z,41.68
2018-04-16T11:22:56.513Z,41.73
2018-04-16T11:25:22.906Z,41.95
2018-04-16T11:27:49.299Z,46.56
2018-04-16T11:30:15.682Z,42.77
2018-04-16T11:32:42.190Z,40.43
2018-04-16T11:35:08.545Z,41.98
2018-04-16T11:37:35.051Z,47.69
2018-04-16T11:40:01.618Z,43.66
2018-04-16T11:42:27.961Z,50.02
2018-04-16T11:44:54.298Z,40.45
2018-04-16T11:47:20.681Z,40.33
2018-04-16T11:49:47.116Z,41.16
2018-04-16T11:52:13.446Z,40.70
2018-04-16T11:54:39.798Z,41.04
2018-04-16T11:57:06.382Z,39.28
2018-04-16T11:59:32.730Z,40.27
2018-04-16T12:01:59.081Z,39.15
2018-04-16T12:04:25.473Z,41.45
2018-04-16T12:06:51.827Z,37.03
2018-04-16T12:09:18.200Z,36.28
2018-04-16T12:11:44.573Z,36.70
2018-04-16T12:14:10.936Z,40.51
2018-04-16T12:16:37.328Z,36.77
2018-04-16T12:19:03.747Z,36.57
2018-04-16T12:21:30.198Z,41.64
2018-04-16T12:23:56.541Z,42.37
2018-04-16T12:26:23.232Z,36.34
2018-04-16T12:28:50.075Z,38.65
2018-04-16T12:31:16.413Z,38.83
2018-04-16T12:33:43.002Z,45.05
2018-04-16T12:36:09.529Z,37.48
2018-04-16T12:38:36.114Z,34.41
2018-04-16T12:41:02.526Z,35.88
2018-04-16T12:43:28.931Z,48.37
2018-04-16T12:45:55.274Z,37.21
2018-04-16T12:48:21.624Z,42.88
2018-04-16T12:50:47.958Z,38.61
2018-04-16T12:53:14.310Z,41.12
2018-04-16T12:55:40.692Z,40.78
2018-04-16T12:58:07.062Z,41.72
2018-04-16T13:00:33.414Z,47.15
2018-04-16T13:02:59.755Z,37.62
2018-04-16T13:05:26.153Z,45.94
2018-04-16T13:07:52.546Z,43.71
2018-04-16T13:10:18.907Z,46.05
2018-04-16T13:12:45.241Z,45.88
2018-04-16T13:15:11.595Z,37.48
2018-04-16T13:17:37.970Z,46.75
2018-04-16T13:20:04.392Z,42.03
2018-04-16T13:22:30.705Z,48.29
2018-04-16T13:24:57.263Z,36.95
2018-04-16T13:27:23.615Z,47.04
2018-04-16T13:29:49.950Z,37.44
2018-04-16T13:32:16.317Z,42.99
2018-04-16T13:34:42.733Z,44.58
2018-04-16T13:37:09.110Z,42.62
2018-04-16T13:39:35.650Z,36.28
2018-04-16T13:42:02.092Z,37.05
2018-04-16T13:44:28.457Z,41.43
2018-04-16T13:46:54.823Z,36.60
2018-04-16T13:49:21.206Z,38.29
2018-04-16T13:51:47.562Z,43.45
2018-04-16T13:54:13.918Z,43.30
2018-04-16T13:56:40.305Z,44.74
2018-04-16T13:59:06.670Z,38.96
2018-04-16T14:01:33.012Z,37.86
2018-04-16T14:03:59.366Z,42.50
2018-04-16T14:06:25.854Z,44.86
2018-04-16T14:08:52.342Z,41.84
2018-04-16T14:11:18.713Z,41.15
2018-04-16T14:13:45.202Z,44.67
2018-04-16T14:16:11.602Z,48.89
2018-04-16T14:18:37.946Z,46.74
2018-04-16T14:21:04.454Z,40.53
2018-04-16T14:23:30.829Z,49.04
2018-04-16T14:25:57.352Z,46.17
2018-04-16T14:28:23.901Z,39.83
2018-04-16T14:30:50.429Z,38.69
2018-04-16T14:33:16.700Z,39.42
2018-04-16T14:35:43.058Z,45.50
2018-04-16T14:38:09.434Z,47.57
2018-04-16T14:40:35.790Z,48.54
2018-04-16T14:43:02.143Z,44.67
2018-04-16T14:45:28.581Z,38.53
2018-04-16T14:47:55.015Z,38.30
2018-04-16T14:50:21.448Z,38.62
2018-04-16T14:52:47.929Z,41.01
2018-04-16T14:55:14.323Z,38.23
2018-04-16T14:57:41.340Z,38.48
2018-04-16T15:00:07.822Z,38.76
2018-04-16T15:02:34.097Z,39.24
2018-04-16T15:05:00.527Z,43.42
2018-04-16T15:07:26.811Z,44.35
2018-04-16T15:09:53.142Z,40.04
2018-04-16T15:12:19.506Z,38.95
2018-04-16T15:14:45.917Z,38.78
2018-04-16T15:17:12.290Z,39.42
2018-04-16T15:19:38.717Z,38.98
2018-04-16T15:22:05.125Z,41.40
2018-04-16T15:24:31.510Z,39.78
2018-04-16T15:26:57.878Z,40.37
2018-04-16T15:29:24.257Z,39.88
2018-04-16T15:31:50.611Z,43.86
2018-04-16T15:34:16.990Z,42.18
2018-04-16T15:36:43.354Z,40.89
2018-04-16T15:39:09.724Z,43.91
2018-04-16T15:41:36.163Z,47.47
2018-04-16T15:44:02.653Z,42.81
2018-04-16T15:46:29.001Z,39.57
2018-04-16T15:48:55.371Z,40.64
2018-04-16T15:51:21.721Z,43.11
2018-04-16T15:53:48.053Z,41.28
2018-04-16T15:56:14.432Z,41.03
2018-04-16T15:58:40.814Z,42.32
2018-04-16T16:01:07.094Z,40.81
2018-04-16T16:03:33.546Z,40.95
2018-04-16T16:05:59.926Z,41.14
2018-04-16T16:08:26.293Z,41.00
2018-04-16T16:10:52.571Z,41.28
2018-04-16T16:13:18.851Z,44.17
2018-04-16T16:15:45.118Z,46.75
2018-04-16T16:18:11.413Z,43.26
2018-04-16T16:20:37.745Z,42.57
2018-04-16T16:23:04.134Z,47.71
2018-04-16T16:25:30.507Z,43.13
2018-04-16T16:27:57.498Z,46.51
2018-04-16T16:30:24.524Z,43.97
2018-04-16T16:32:51.054Z,44.35
2018-04-16T16:35:17.362Z,43.98
2018-04-16T16:37:43.622Z,44.23
2018-04-16T16:40:09.880Z,44.89
2018-04-16T16:42:36.317Z,47.88
2018-04-16T16:45:02.630Z,45.15
2018-04-16T16:47:28.974Z,44.64
2018-04-16T16:49:55.330Z,45.16
2018-04-16T16:52:21.662Z,45.17
2018-04-16T16:54:47.952Z,46.50
2018-04-16T16:57:14.225Z,45.82
2018-04-16T16:59:40.655Z,45.64
2018-04-16T17:02:06.935Z,45.59
2018-04-16T17:04:33.210Z,45.73
2018-04-16T17:06:59.474Z,46.89
2018-04-16T17:09:25.753Z,46.83
2018-04-16T17:11:52.084Z,46.67
2018-04-16T17:14:18.401Z,47.56
2018-04-16T17:16:44.693Z,48.21
2018-04-16T17:19:10.948Z,47.05
2018-04-16T17:21:37.597Z,47.15
2018-04-16T17:24:03.902Z,47.62
2018-04-16T17:26:30.205Z,48.22
2018-04-16T17:28:56.582Z,47.60
2018-04-16T17:31:22.896Z,47.56
2018-04-16T17:33:49.161Z,48.02
2018-04-16T17:36:15.424Z,49.70
2018-04-16T17:38:41.699Z,49.08
2018-04-16T17:41:07.978Z,49.23
2018-04-16T17:43:34.273Z,48.91
2018-04-16T17:46:00.550Z,48.89
2018-04-16T17:48:26.802Z,49.74
2018-04-16T17:50:53.089Z,50.57
2018-04-16T17:53:19.342Z,50.94
2018-04-16T17:55:45.614Z,50.36
2018-04-16T17:58:11.910Z,49.68
2018-04-16T18:00:38.169Z,50.81
2018-04-16T18:03:04.524Z,51.09
2018-04-16T18:05:30.829Z,52.25
2018-04-16T18:07:57.084Z,50.44
2018-04-16T18:10:23.415Z,51.08
2018-04-16T18:12:49.873Z,50.72
2018-04-16T18:15:16.179Z,50.93
2018-04-16T18:17:42.511Z,51.29
2018-04-16T18:20:08.818Z,50.90
2018-04-16T18:22:35.091Z,52.88
2018-04-16T18:25:01.585Z,55.01
2018-04-16T18:27:27.906Z,51.79
2018-04-16T18:29:54.161Z,51.10
2018-04-16T18:32:21.150Z,53.21
2018-04-16T18:34:47.459Z,51.30
2018-04-16T18:37:13.755Z,50.81
2018-04-16T18:39:40.041Z,50.67
2018-04-16T18:42:06.435Z,51.47
2018-04-16T18:44:32.689Z,51.91
2018-04-16T18:46:58.973Z,50.33
2018-04-16T18:49:25.249Z,50.67
2018-04-16T18:51:51.556Z,50.28
2018-04-16T18:54:18.053Z,50.03
2018-04-16T18:56:44.391Z,49.48
2018-04-16T18:59:10.702Z,49.36
2018-04-16T19:01:36.969Z,53.18
2018-04-16T19:04:03.299Z,50.72
2018-04-16T19:06:29.951Z,50.85
2018-04-16T19:08:56.283Z,49.36
2018-04-16T19:11:22.541Z,49.72
2018-04-16T19:13:48.837Z,50.76
2018-04-16T19:16:15.098Z,51.59
2018-04-16T19:18:41.374Z,50.06
2018-04-16T19:21:13.798Z,51.04
2018-04-16T19:23:40.074Z,55.67
2018-04-16T19:26:06.353Z,57.19
2018-04-16T19:28:32.675Z,51.07
2018-04-16T19:30:58.971Z,50.39
2018-04-16T19:33:31.313Z,51.47
2018-04-16T19:35:57.633Z,54.31
2018-04-16T19:38:23.929Z,52.39
2018-04-16T19:40:50.282Z,52.80
2018-04-16T19:43:16.567Z,54.58
2018-04-16T19:45:42.842Z,56.08
2018-04-16T19:48:09.126Z,57.67
2018-04-16T19:50:35.404Z,57.43
2018-04-16T19:53:01.678Z,57.17
2018-04-16T19:55:28.003Z,60.04
2018-04-16T19:58:00.359Z,56.53
2018-04-16T20:00:26.625Z,58.60
2018-04-16T20:02:58.912Z,57.78
2018-04-16T20:05:25.304Z,58.35
2018-04-16T20:07:51.617Z,55.76
2018-04-16T20:10:17.879Z,55.66
2018-04-16T20:12:44.238Z,55.82
2018-04-16T20:15:10.492Z,59.61
2018-04-16T20:17:36.797Z,55.54
2018-04-16T20:20:03.102Z,55.59
2018-04-16T20:22:29.370Z,55.74
2018-04-16T20:24:55.641Z,55.40
2018-04-16T20:27:21.944Z,56.23
2018-04-16T20:29:48.221Z,59.11
2018-04-16T20:32:14.499Z,55.44
2018-04-16T20:34:40.910Z,56.08
2018-04-16T20:37:07.178Z,56.95
2018-04-16T20:39:33.442Z,56.89
2018-04-16T20:41:59.715Z,55.06
2018-04-16T20:44:26.002Z,54.66
2018-04-16T20:46:52.366Z,55.19
2018-04-16T20:49:18.792Z,55.90
2018-04-16T20:51:45.063Z,56.45
2018-04-16T20:54:11.456Z,53.64
2018-04-16T20:56:37.781Z,52.75
2018-04-16T20:59:04.494Z,55.73
2018-04-16T21:01:30.945Z,52.48
2018-04-16T21:03:57.205Z,52.61
2018-04-16T21:06:23.480Z,52.36
2018-04-16T21:08:49.751Z,53.81
2018-04-16T21:11:16.019Z,53.01
2018-04-16T21:13:42.279Z,51.36
2018-04-16T21:16:08.570Z,51.01
2018-04-16T21:18:34.835Z,52.97
2018-04-16T21:21:01.107Z,59.01
2018-04-16T21:23:27.345Z,54.50
2018-04-16T21:25:53.616Z,56.45
2018-04-16T21:28:19.866Z,53.28
2018-04-16T21:30:46.150Z,53.23
2018-04-16T21:33:12.445Z,55.75
2018-04-16T21:35:38.722Z,52.40
2018-04-16T21:38:04.989Z,52.64
2018-04-16T21:40:31.313Z,51.93
2018-04-16T21:42:57.582Z,55.03
2018-04-16T21:45:23.991Z,51.60
2018-04-16T21:47:50.241Z,51.44
2018-04-16T21:50:16.575Z,51.69
2018-04-16T21:52:42.891Z,52.42
2018-04-16T21:55:09.187Z,52.66
2018-04-16T21:57:35.474Z,53.09
2018-04-16T22:00:01.738Z,53.11
2018-04-16T22:02:28.028Z,53.17
2018-04-16T22:04:54.298Z,53.67
2018-04-16T22:07:20.567Z,56.86
2018-04-16T22:09:46.845Z,52.99
2018-04-16T22:12:13.223Z,53.24
2018-04-16T22:14:39.517Z,56.42
2018-04-16T22:17:05.866Z,53.66
2018-04-16T22:19:32.201Z,54.33
2018-04-16T22:21:58.625Z,57.99
2018-04-16T22:24:24.877Z,55.12
2018-04-16T22:26:51.193Z,54.29
2018-04-16T22:29:17.523Z,54.76
2018-04-16T22:31:43.877Z,57.08
2018-04-16T22:34:10.182Z,53.96
2018-04-16T22:36:36.465Z,53.73
2018-04-16T22:39:02.839Z,53.94
2018-04-16T22:41:29.152Z,55.22
2018-04-16T22:43:55.415Z,54.62
2018-04-16T22:46:21.685Z,55.80
2018-04-16T22:48:47.993Z,55.30
2018-04-16T22:51:14.266Z,56.87
2018-04-16T22:53:40.560Z,56.28
2018-04-16T22:56:06.841Z,54.33
2018-04-16T22:58:33.122Z,54.01
2018-04-16T23:00:59.540Z,53.90
2018-04-16T23:03:25.850Z,53.79
2018-04-16T23:05:52.182Z,53.65
2018-04-16T23:08:18.557Z,53.30
2018-04-16T23:10:44.877Z,52.24
2018-04-16T23:13:11.189Z,52.15
2018-04-16T23:15:37.525Z,51.80
2018-04-16T23:18:03.945Z,51.22
2018-04-16T23:20:30.270Z,52.58
2018-04-16T23:22:56.602Z,51.56
2018-04-16T23:25:22.934Z,50.64
2018-04-16T23:27:49.261Z,50.53
2018-04-16T23:30:15.597Z,51.31
2018-04-16T23:32:41.919Z,51.29
2018-04-16T23:35:08.265Z,51.97
2018-04-16T23:37:34.578Z,52.86
2018-04-16T23:40:00.914Z,52.50
2018-04-16T23:42:27.254Z,51.77
2018-04-16T23:44:53.570Z,51.53
2018-04-16T23:47:19.905Z,51.94
2018-04-16T23:49:46.368Z,51.98
2018-04-16T23:52:12.732Z,51.75
2018-04-16T23:54:39.046Z,51.60
2018-04-16T23:57:05.382Z,51.98
2018-04-16T23:59:31.710Z,52.25
